sensor_id;sensor_type;location;lat;lon;timestamp;pressure;altitude;pressure_sealevel;temperature;humidity
22743;BME280;11538;48.884;8.696;2023-02-28T00:01:30;99488.91;;;0.67;53.75
22743;BME280;11538;48.884;8.696;2023-02-28T00:03:58;99488.91;;;0.67;54.03
22743;BME280;11538;48.884;8.696;2023-02-28T00:06:27;99488.28;;;0.65;54.48
22743;BME280;11538;48.884;8.696;2023-02-28T00:08:55;99491.00;;;0.58;55.16
22743;BME280;11538;48.884;8.696;2023-02-28T00:11:22;99486.88;;;0.62;55.45
22743;BME280;11538;48.884;8.696;2023-02-28T00:13:49;99482.94;;;0.65;56.10
22743;BME280;11538;48.884;8.696;2023-02-28T00:16:22;99491.78;;;0.65;56.69
22743;BME280;11538;48.884;8.696;2023-02-28T00:18:50;99487.72;;;0.56;57.53
22743;BME280;11538;48.884;8.696;2023-02-28T00:21:19;99480.75;;;0.55;57.94
22743;BME280;11538;48.884;8.696;2023-02-28T00:23:47;99475.41;;;0.55;58.60
22743;BME280;11538;48.884;8.696;2023-02-28T00:26:15;99481.78;;;0.54;58.97
22743;BME280;11538;48.884;8.696;2023-02-28T00:28:42;99488.19;;;0.46;59.68
22743;BME280;11538;48.884;8.696;2023-02-28T00:31:09;99485.31;;;0.48;60.15
22743;BME280;11538;48.884;8.696;2023-02-28T00:33:36;99488.78;;;0.48;60.15
22743;BME280;11538;48.884;8.696;2023-02-28T00:36:09;99479.97;;;0.48;60.52
22743;BME280;11538;48.884;8.696;2023-02-28T00:38:38;99479.56;;;0.51;60.77
22743;BME280;11538;48.884;8.696;2023-02-28T00:41:06;99483.53;;;0.41;61.29
22743;BME280;11538;48.884;8.696;2023-02-28T00:43:36;99479.22;;;0.40;61.60
22743;BME280;11538;48.884;8.696;2023-02-28T00:46:04;99485.75;;;0.45;61.75
22743;BME280;11538;48.884;8.696;2023-02-28T00:48:32;99490.06;;;0.46;61.73
22743;BME280;11538;48.884;8.696;2023-02-28T00:51:00;99482.25;;;0.44;62.11
22743;BME280;11538;48.884;8.696;2023-02-28T00:53:27;99485.53;;;0.46;62.27
22743;BME280;11538;48.884;8.696;2023-02-28T00:55:55;99483.94;;;0.38;62.67
22743;BME280;11538;48.884;8.696;2023-02-28T00:58:22;99478.44;;;0.33;62.99
22743;BME280;11538;48.884;8.696;2023-02-28T01:00:49;99479.25;;;0.34;63.44
22743;BME280;11538;48.884;8.696;2023-02-28T01:03:19;99479.47;;;0.32;63.53
22743;BME280;11538;48.884;8.696;2023-02-28T01:05:46;99480.06;;;0.34;63.64
22743;BME280;11538;48.884;8.696;2023-02-28T01:08:14;99473.69;;;0.35;63.80
22743;BME280;11538;48.884;8.696;2023-02-28T01:10:42;99475.09;;;0.38;63.82
22743;BME280;11538;48.884;8.696;2023-02-28T01:13:09;99478.44;;;0.33;64.04
22743;BME280;11538;48.884;8.696;2023-02-28T01:15:45;99474.31;;;0.37;64.07
22743;BME280;11538;48.884;8.696;2023-02-28T01:18:12;99476.38;;;0.35;64.08
22743;BME280;11538;48.884;8.696;2023-02-28T01:20:40;99476.56;;;0.34;64.42
22743;BME280;11538;48.884;8.696;2023-02-28T01:23:06;99472.50;;;0.31;64.76
22743;BME280;11538;48.884;8.696;2023-02-28T01:25:37;99478.63;;;0.32;64.79
22743;BME280;11538;48.884;8.696;2023-02-28T01:28:05;99478.47;;;0.26;65.08
22743;BME280;11538;48.884;8.696;2023-02-28T01:30:32;99473.34;;;0.25;65.54
22743;BME280;11538;48.884;8.696;2023-02-28T01:33:00;99473.19;;;0.20;65.60
22743;BME280;11538;48.884;8.696;2023-02-28T01:35:27;99474.03;;;0.13;65.97
22743;BME280;11538;48.884;8.696;2023-02-28T01:37:54;99475.50;;;0.09;66.42
22743;BME280;11538;48.884;8.696;2023-02-28T01:40:21;99470.34;;;0.14;66.32
22743;BME280;11538;48.884;8.696;2023-02-28T01:42:49;99471.56;;;0.12;66.33
22743;BME280;11538;48.884;8.696;2023-02-28T01:45:30;99467.06;;;0.12;66.41
22743;BME280;11538;48.884;8.696;2023-02-28T01:48:04;99466.41;;;0.17;66.54
22743;BME280;11538;48.884;8.696;2023-02-28T01:50:38;99469.13;;;0.10;66.65
22743;BME280;11538;48.884;8.696;2023-02-28T01:53:14;99463.63;;;0.05;67.03
22743;BME280;11538;48.884;8.696;2023-02-28T01:55:48;99461.75;;;0.06;67.19
22743;BME280;11538;48.884;8.696;2023-02-28T01:58:20;99462.63;;;-0.01;67.27
22743;BME280;11538;48.884;8.696;2023-02-28T02:00:48;99463.44;;;0.00;67.58
22743;BME280;11538;48.884;8.696;2023-02-28T02:03:18;99456.88;;;-0.04;67.84
22743;BME280;11538;48.884;8.696;2023-02-28T02:05:48;99459.97;;;-0.07;67.89
22743;BME280;11538;48.884;8.696;2023-02-28T02:08:25;99456.88;;;-0.04;68.56
22743;BME280;11538;48.884;8.696;2023-02-28T02:10:59;99456.25;;;0.01;68.10
22743;BME280;11538;48.884;8.696;2023-02-28T02:22:21;99443.75;;;0.01;68.29
22743;BME280;11538;48.884;8.696;2023-02-28T02:25:19;99442.09;;;0.00;67.99
22743;BME280;11538;48.884;8.696;2023-02-28T02:31:18;99439.31;;;-0.19;68.85
22743;BME280;11538;48.884;8.696;2023-02-28T02:39:53;99446.88;;;-0.16;69.26
22743;BME280;11538;48.884;8.696;2023-02-28T02:42:51;99446.31;;;-0.24;69.58
22743;BME280;11538;48.884;8.696;2023-02-28T02:45:48;99445.91;;;-0.21;69.67
22743;BME280;11538;48.884;8.696;2023-02-28T02:48:19;99440.91;;;-0.11;69.75
22743;BME280;11538;48.884;8.696;2023-02-28T02:50:57;99444.78;;;-0.07;69.93
22743;BME280;11538;48.884;8.696;2023-02-28T02:53:36;99448.03;;;0.02;69.65
22743;BME280;11538;48.884;8.696;2023-02-28T02:56:06;99445.81;;;-0.08;69.89
22743;BME280;11538;48.884;8.696;2023-02-28T02:58:39;99436.00;;;-0.14;70.11
22743;BME280;11538;48.884;8.696;2023-02-28T03:01:15;99447.47;;;-0.13;70.18
22743;BME280;11538;48.884;8.696;2023-02-28T03:04:18;99444.63;;;-0.19;70.70
22743;BME280;11538;48.884;8.696;2023-02-28T03:06:46;99444.19;;;-0.09;70.66
22743;BME280;11538;48.884;8.696;2023-02-28T03:09:13;99446.19;;;-0.04;70.35
22743;BME280;11538;48.884;8.696;2023-02-28T03:11:42;99449.53;;;-0.09;70.49
22743;BME280;11538;48.884;8.696;2023-02-28T03:17:38;99448.91;;;-0.11;71.04
22743;BME280;11538;48.884;8.696;2023-02-28T03:21:00;99450.13;;;-0.07;71.04
22743;BME280;11538;48.884;8.696;2023-02-28T03:24:11;99450.31;;;-0.08;70.97
22743;BME280;11538;48.884;8.696;2023-02-28T03:26:34;99447.91;;;-0.17;71.33
22743;BME280;11538;48.884;8.696;2023-02-28T03:29:13;99452.81;;;-0.13;71.57
22743;BME280;11538;48.884;8.696;2023-02-28T03:32:18;99448.75;;;-0.16;71.63
22743;BME280;11538;48.884;8.696;2023-02-28T03:35:00;99445.66;;;-0.20;72.04
22743;BME280;11538;48.884;8.696;2023-02-28T03:37:35;99445.59;;;-0.06;71.35
22743;BME280;11538;48.884;8.696;2023-02-28T03:40:08;99446.81;;;-0.02;71.35
22743;BME280;11538;48.884;8.696;2023-02-28T03:42:43;99447.06;;;-0.10;71.49
22743;BME280;11538;48.884;8.696;2023-02-28T03:45:30;99445.84;;;-0.15;71.79
22743;BME280;11538;48.884;8.696;2023-02-28T03:48:12;99449.53;;;-0.09;71.87
22743;BME280;11538;48.884;8.696;2023-02-28T03:50:44;99444.53;;;0.02;71.25
22743;BME280;11538;48.884;8.696;2023-02-28T03:53:20;99443.34;;;-0.09;71.96
22743;BME280;11538;48.884;8.696;2023-02-28T04:01:20;99433.53;;;-0.16;72.45
22743;BME280;11538;48.884;8.696;2023-02-28T04:03:50;99436.81;;;-0.13;72.59
22743;BME280;11538;48.884;8.696;2023-02-28T04:06:21;99441.53;;;-0.09;72.44
22743;BME280;11538;48.884;8.696;2023-02-28T04:08:49;99435.53;;;-0.04;72.21
22743;BME280;11538;48.884;8.696;2023-02-28T04:11:20;99434.56;;;-0.10;72.33
22743;BME280;11538;48.884;8.696;2023-02-28T04:13:49;99444.00;;;-0.14;72.56
22743;BME280;11538;48.884;8.696;2023-02-28T04:16:16;99441.28;;;-0.07;72.68
22743;BME280;11538;48.884;8.696;2023-02-28T04:19:04;99443.41;;;-0.16;72.61
22743;BME280;11538;48.884;8.696;2023-02-28T04:21:38;99441.00;;;-0.24;73.14
22743;BME280;11538;48.884;8.696;2023-02-28T04:24:08;99444.03;;;-0.21;73.10
22743;BME280;11538;48.884;8.696;2023-02-28T04:26:44;99442.16;;;-0.13;72.92
22743;BME280;11538;48.884;8.696;2023-02-28T04:29:14;99447.88;;;-0.10;72.99
22743;BME280;11538;48.884;8.696;2023-02-28T04:31:44;99443.19;;;-0.15;72.98
22743;BME280;11538;48.884;8.696;2023-02-28T04:34:11;99436.47;;;-0.24;73.46
22743;BME280;11538;48.884;8.696;2023-02-28T04:36:38;99438.09;;;-0.23;73.50
22743;BME280;11538;48.884;8.696;2023-02-28T04:39:05;99441.38;;;-0.21;73.44
22743;BME280;11538;48.884;8.696;2023-02-28T04:41:31;99443.84;;;-0.19;73.75
22743;BME280;11538;48.884;8.696;2023-02-28T04:43:59;99437.25;;;-0.17;73.88
22743;BME280;11538;48.884;8.696;2023-02-28T04:46:26;99432.56;;;-0.21;73.87
22743;BME280;11538;48.884;8.696;2023-02-28T04:48:53;99430.69;;;-0.21;74.16
22743;BME280;11538;48.884;8.696;2023-02-28T04:51:21;99441.78;;;-0.24;74.16
22743;BME280;11538;48.884;8.696;2023-02-28T04:53:48;99437.06;;;-0.22;74.53
22743;BME280;11538;48.884;8.696;2023-02-28T04:56:17;99438.13;;;-0.30;75.17
22743;BME280;11538;48.884;8.696;2023-02-28T04:58:45;99433.59;;;-0.29;75.27
22743;BME280;11538;48.884;8.696;2023-02-28T05:01:35;99443.44;;;-0.23;75.41
22743;BME280;11538;48.884;8.696;2023-02-28T05:04:06;99445.47;;;-0.25;75.66
22743;BME280;11538;48.884;8.696;2023-02-28T05:06:33;99448.56;;;-0.28;76.08
22743;BME280;11538;48.884;8.696;2023-02-28T05:09:01;99456.97;;;-0.24;76.48
22743;BME280;11538;48.884;8.696;2023-02-28T05:11:31;99457.78;;;-0.24;76.50
22743;BME280;11538;48.884;8.696;2023-02-28T05:14:05;99456.16;;;-0.25;76.81
22743;BME280;11538;48.884;8.696;2023-02-28T05:16:33;99455.53;;;-0.27;77.46
22743;BME280;11538;48.884;8.696;2023-02-28T05:19:00;99461.94;;;-0.35;78.05
22743;BME280;11538;48.884;8.696;2023-02-28T05:21:49;99467.47;;;-0.30;78.10
22743;BME280;11538;48.884;8.696;2023-02-28T05:24:17;99457.41;;;-0.27;78.47
22743;BME280;11538;48.884;8.696;2023-02-28T05:26:52;99458.19;;;-0.20;78.51
22743;BME280;11538;48.884;8.696;2023-02-28T05:29:20;99451.59;;;-0.18;78.68
22743;BME280;11538;48.884;8.696;2023-02-28T05:31:47;99451.59;;;-0.18;78.82
22743;BME280;11538;48.884;8.696;2023-02-28T05:34:15;99458.19;;;-0.20;78.94
22743;BME280;11538;48.884;8.696;2023-02-28T05:36:43;99455.72;;;-0.22;79.13
22743;BME280;11538;48.884;8.696;2023-02-28T05:39:12;99453.91;;;-0.21;79.55
22743;BME280;11538;48.884;8.696;2023-02-28T05:41:42;99458.97;;;-0.13;78.95
22743;BME280;11538;48.884;8.696;2023-02-28T05:44:09;99450.38;;;-0.15;79.29
22743;BME280;11538;48.884;8.696;2023-02-28T05:46:37;99453.66;;;-0.13;79.64
22743;BME280;11538;48.884;8.696;2023-02-28T05:49:04;99457.13;;;-0.12;79.15
22743;BME280;11538;48.884;8.696;2023-02-28T05:51:32;99450.38;;;-0.15;79.27
22743;BME280;11538;48.884;8.696;2023-02-28T05:54:00;99453.25;;;-0.17;79.66
22743;BME280;11538;48.884;8.696;2023-02-28T05:56:31;99447.31;;;-0.19;78.95
22743;BME280;11538;48.884;8.696;2023-02-28T05:58:58;99447.28;;;-0.12;78.87
22743;BME280;11538;48.884;8.696;2023-02-28T06:01:40;99445.41;;;-0.11;78.55
22743;BME280;11538;48.884;8.696;2023-02-28T06:04:10;99454.84;;;-0.09;78.57
22743;BME280;11538;48.884;8.696;2023-02-28T06:06:49;99449.53;;;-0.09;78.81
22743;BME280;11538;48.884;8.696;2023-02-28T06:09:17;99448.91;;;-0.11;78.63
22743;BME280;11538;48.884;8.696;2023-02-28T06:11:44;99454.63;;;-0.07;78.52
22743;BME280;11538;48.884;8.696;2023-02-28T06:14:17;99457.91;;;-0.05;78.41
22743;BME280;11538;48.884;8.696;2023-02-28T06:16:45;99449.69;;;-0.04;78.01
22743;BME280;11538;48.884;8.696;2023-02-28T06:19:13;99451.53;;;-0.04;78.22
22743;BME280;11538;48.884;8.696;2023-02-28T06:21:41;99456.88;;;-0.04;77.89
22743;BME280;11538;48.884;8.696;2023-02-28T06:24:09;99455.19;;;0.08;77.63
22743;BME280;11538;48.884;8.696;2023-02-28T06:26:36;99461.94;;;0.11;76.65
22743;BME280;11538;48.884;8.696;2023-02-28T06:29:06;99467.28;;;0.11;76.64
22743;BME280;11538;48.884;8.696;2023-02-28T06:31:33;99464.59;;;0.11;76.09
22743;BME280;11538;48.884;8.696;2023-02-28T06:34:00;99460.09;;;0.11;75.83
22743;BME280;11538;48.884;8.696;2023-02-28T06:36:27;99469.75;;;0.12;75.47
22743;BME280;11538;48.884;8.696;2023-02-28T06:38:54;99475.84;;;0.20;75.26
22743;BME280;11538;48.884;8.696;2023-02-28T06:41:25;99474.38;;;0.24;74.73
22743;BME280;11538;48.884;8.696;2023-02-28T06:43:54;99476.88;;;0.19;74.51
22743;BME280;11538;48.884;8.696;2023-02-28T06:46:21;99474.03;;;0.13;74.88
22743;BME280;11538;48.884;8.696;2023-02-28T06:48:49;99473.63;;;0.17;74.54
22743;BME280;11538;48.884;8.696;2023-02-28T06:51:19;99482.22;;;0.19;74.46
22743;BME280;11538;48.884;8.696;2023-02-28T06:53:49;99478.69;;;0.25;74.06
22743;BME280;11538;48.884;8.696;2023-02-28T06:56:18;99485.00;;;0.31;73.85
22743;BME280;11538;48.884;8.696;2023-02-28T06:58:49;99488.28;;;0.33;73.73
22743;BME280;11538;48.884;8.696;2023-02-28T07:01:18;99486.19;;;0.41;73.68
22743;BME280;11538;48.884;8.696;2023-02-28T07:03:46;99501.38;;;0.41;73.19
22743;BME280;11538;48.884;8.696;2023-02-28T07:06:20;99496.88;;;0.35;73.67
22743;BME280;11538;48.884;8.696;2023-02-28T07:08:51;99504.28;;;0.33;73.75
22743;BME280;11538;48.884;8.696;2023-02-28T07:11:21;99501.84;;;0.31;74.11
22743;BME280;11538;48.884;8.696;2023-02-28T07:13:49;99502.81;;;0.37;73.57
22743;BME280;11538;48.884;8.696;2023-02-28T07:16:18;99508.56;;;0.40;73.32
22743;BME280;11538;48.884;8.696;2023-02-28T07:18:45;99503.22;;;0.40;72.97
22743;BME280;11538;48.884;8.696;2023-02-28T07:21:12;99509.81;;;0.38;72.85
22743;BME280;11538;48.884;8.696;2023-02-28T07:23:39;99513.94;;;0.34;73.04
22743;BME280;11538;48.884;8.696;2023-02-28T07:26:13;99520.34;;;0.26;73.24
22743;BME280;11538;48.884;8.696;2023-02-28T07:28:42;99504.53;;;0.31;73.37
22743;BME280;11538;48.884;8.696;2023-02-28T07:31:10;99517.88;;;0.31;72.91
22743;BME280;11538;48.884;8.696;2023-02-28T07:33:37;99514.78;;;0.34;72.97
22743;BME280;11538;48.884;8.696;2023-02-28T07:36:14;99514.53;;;0.36;72.72
22743;BME280;11538;48.884;8.696;2023-02-28T07:38:44;99507.38;;;0.36;72.54
22743;BME280;11538;48.884;8.696;2023-02-28T07:41:16;99503.88;;;0.36;72.97
22743;BME280;11538;48.884;8.696;2023-02-28T07:43:43;99511.66;;;0.37;72.46
22743;BME280;11538;48.884;8.696;2023-02-28T07:46:14;99505.06;;;0.40;72.23
22743;BME280;11538;48.884;8.696;2023-02-28T07:48:43;99503.25;;;0.34;72.52
22743;BME280;11538;48.884;8.696;2023-02-28T07:51:10;99501.84;;;0.31;72.63
22743;BME280;11538;48.884;8.696;2023-02-28T07:53:40;99514.53;;;0.36;72.60
22743;BME280;11538;48.884;8.696;2023-02-28T07:56:07;99507.53;;;0.41;72.33
22743;BME280;11538;48.884;8.696;2023-02-28T07:58:34;99513.06;;;0.47;71.97
22743;BME280;11538;48.884;8.696;2023-02-28T08:01:09;99512.66;;;0.43;71.72
22743;BME280;11538;48.884;8.696;2023-02-28T08:03:38;99519.78;;;0.49;71.72
22743;BME280;11538;48.884;8.696;2023-02-28T08:06:08;99512.78;;;0.55;70.79
22743;BME280;11538;48.884;8.696;2023-02-28T08:08:41;99513.81;;;0.54;70.73
22743;BME280;11538;48.884;8.696;2023-02-28T08:11:08;99525.47;;;0.60;70.67
22743;BME280;11538;48.884;8.696;2023-02-28T08:13:34;99525.09;;;0.56;71.00
22743;BME280;11538;48.884;8.696;2023-02-28T08:16:02;99520.97;;;0.60;71.36
22743;BME280;11538;48.884;8.696;2023-02-28T08:18:29;99521.72;;;0.74;70.67
22743;BME280;11538;48.884;8.696;2023-02-28T08:20:56;99520.72;;;0.68;70.50
22743;BME280;11538;48.884;8.696;2023-02-28T08:23:24;99526.22;;;0.73;69.90
22743;BME280;11538;48.884;8.696;2023-02-28T08:25:56;99524.53;;;0.79;69.74
22743;BME280;11538;48.884;8.696;2023-02-28T08:28:23;99523.94;;;0.77;70.13
22743;BME280;11538;48.884;8.696;2023-02-28T08:30:53;99520.59;;;0.82;69.38
22743;BME280;11538;48.884;8.696;2023-02-28T08:33:22;99527.00;;;0.81;69.40
22743;BME280;11538;48.884;8.696;2023-02-28T08:35:53;99529.44;;;0.82;69.44
22743;BME280;11538;48.884;8.696;2023-02-28T08:38:22;99531.09;;;0.83;69.80
22743;BME280;11538;48.884;8.696;2023-02-28T08:40:50;99533.09;;;0.88;69.61
22743;BME280;11538;48.884;8.696;2023-02-28T08:43:23;99527.03;;;0.99;69.24
22743;BME280;11538;48.884;8.696;2023-02-28T08:45:54;99539.09;;;1.09;68.40
22743;BME280;11538;48.884;8.696;2023-02-28T08:48:29;99529.69;;;1.06;67.68
22743;BME280;11538;48.884;8.696;2023-02-28T08:51:04;99534.41;;;1.04;68.10
22743;BME280;11538;48.884;8.696;2023-02-28T08:53:35;99536.66;;;1.07;68.02
22743;BME280;11538;48.884;8.696;2023-02-28T08:56:09;99539.53;;;1.06;68.16
22743;BME280;11538;48.884;8.696;2023-02-28T08:58:36;99544.00;;;1.12;68.06
22743;BME280;11538;48.884;8.696;2023-02-28T09:01:19;99545.19;;;1.16;68.01
22743;BME280;11538;48.884;8.696;2023-02-28T09:03:50;99544.81;;;1.38;67.41
22743;BME280;11538;48.884;8.696;2023-02-28T09:06:23;99544.81;;;1.38;67.16
22743;BME280;11538;48.884;8.696;2023-02-28T09:08:51;99560.28;;;1.36;66.64
22743;BME280;11538;48.884;8.696;2023-02-28T09:11:18;99545.53;;;1.26;66.89
22743;BME280;11538;48.884;8.696;2023-02-28T09:13:46;99544.47;;;1.27;67.20
22743;BME280;11538;48.884;8.696;2023-02-28T09:16:15;99551.97;;;1.19;67.13
22743;BME280;11538;48.884;8.696;2023-02-28T09:18:44;99559.00;;;1.13;67.51
22743;BME280;11538;48.884;8.696;2023-02-28T09:21:15;99548.03;;;1.21;67.54
22743;BME280;11538;48.884;8.696;2023-02-28T09:23:50;99551.16;;;1.18;67.24
22743;BME280;11538;48.884;8.696;2023-02-28T09:26:25;99552.25;;;1.10;68.03
22743;BME280;11538;48.884;8.696;2023-02-28T09:29:00;99544.72;;;1.26;67.70
22743;BME280;11538;48.884;8.696;2023-02-28T09:31:29;99548.31;;;1.38;66.50
22743;BME280;11538;48.884;8.696;2023-02-28T09:33:58;99547.25;;;1.39;66.71
22743;BME280;11538;48.884;8.696;2023-02-28T09:36:26;99546.19;;;1.47;66.55
22743;BME280;11538;48.884;8.696;2023-02-28T09:39:10;99550.34;;;1.62;66.03
22743;BME280;11538;48.884;8.696;2023-02-28T09:41:41;99549.75;;;1.59;65.58
22743;BME280;11538;48.884;8.696;2023-02-28T09:44:33;99545.59;;;1.64;65.65
22743;BME280;11538;48.884;8.696;2023-02-28T09:47:32;99546.47;;;1.57;65.55
22743;BME280;11538;48.884;8.696;2023-02-28T09:52:55;99543.72;;;1.64;65.28
22743;BME280;11538;48.884;8.696;2023-02-28T09:55:43;99547.75;;;1.73;64.97
22743;BME280;11538;48.884;8.696;2023-02-28T09:58:40;99552.19;;;1.80;64.65
22743;BME280;11538;48.884;8.696;2023-02-28T10:01:27;99558.28;;;1.87;63.26
22743;BME280;11538;48.884;8.696;2023-02-28T10:04:09;99553.63;;;1.82;62.72
22743;BME280;11538;48.884;8.696;2023-02-28T10:06:50;99558.09;;;1.88;62.38
22743;BME280;11538;48.884;8.696;2023-02-28T10:09:37;99554.28;;;1.96;62.03
22743;BME280;11538;48.884;8.696;2023-02-28T10:12:06;99547.50;;;2.12;61.48
22743;BME280;11538;48.884;8.696;2023-02-28T10:14:35;99550.78;;;2.14;61.15
22743;BME280;11538;48.884;8.696;2023-02-28T10:17:11;99558.81;;;2.14;60.98
22743;BME280;11538;48.884;8.696;2023-02-28T10:22:20;99557.69;;;2.22;60.43
22743;BME280;11538;48.884;8.696;2023-02-28T10:24:55;99566.84;;;2.14;60.89
22743;BME280;11538;48.884;8.696;2023-02-28T10:27:31;99568.84;;;2.19;60.43
22743;BME280;11538;48.884;8.696;2023-02-28T10:30:01;99565.94;;;2.21;60.46
22743;BME280;11538;48.884;8.696;2023-02-28T10:32:36;99574.34;;;2.24;60.40
22743;BME280;11538;48.884;8.696;2023-02-28T10:35:23;99571.44;;;2.26;60.06
22743;BME280;11538;48.884;8.696;2023-02-28T10:37:59;99576.72;;;2.32;59.89
22743;BME280;11538;48.884;8.696;2023-02-28T10:40:35;99577.75;;;2.31;59.68
22743;BME280;11538;48.884;8.696;2023-02-28T10:43:20;99587.19;;;2.34;59.36
22743;BME280;11538;48.884;8.696;2023-02-28T10:46:13;99575.88;;;2.32;59.91
22743;BME280;11538;48.884;8.696;2023-02-28T10:49:03;99570.91;;;2.36;59.42
22743;BME280;11538;48.884;8.696;2023-02-28T10:51:40;99574.66;;;2.46;58.96
22743;BME280;11538;48.884;8.696;2023-02-28T10:54:32;99566.00;;;2.63;58.70
22743;BME280;11538;48.884;8.696;2023-02-28T10:57:22;99569.28;;;2.65;58.18
22743;BME280;11538;48.884;8.696;2023-02-28T10:59:53;99578.22;;;2.59;58.53
22743;BME280;11538;48.884;8.696;2023-02-28T11:02:36;99582.03;;;2.51;58.74
22743;BME280;11538;48.884;8.696;2023-02-28T11:05:30;99572.25;;;2.57;58.68
22743;BME280;11538;48.884;8.696;2023-02-28T11:08:14;99568.09;;;2.61;58.96
22743;BME280;11538;48.884;8.696;2023-02-28T11:10:56;99568.38;;;2.71;58.60
22743;BME280;11538;48.884;8.696;2023-02-28T11:13:35;99564.06;;;2.82;57.91
22743;BME280;11538;48.884;8.696;2023-02-28T11:16:07;99570.66;;;2.98;57.53
22743;BME280;11538;48.884;8.696;2023-02-28T11:18:55;99564.91;;;2.95;57.39
22743;BME280;11538;48.884;8.696;2023-02-28T11:21:35;99562.63;;;2.98;57.83
22743;BME280;11538;48.884;8.696;2023-02-28T11:24:37;99556.78;;;3.01;57.72
22743;BME280;11538;48.884;8.696;2023-02-28T11:29:59;99564.28;;;3.23;56.87
22743;BME280;11538;48.884;8.696;2023-02-28T11:32:29;99559.41;;;3.32;56.36
22743;BME280;11538;48.884;8.696;2023-02-28T11:35:33;99557.28;;;3.46;56.21
22743;BME280;11538;48.884;8.696;2023-02-28T11:38:02;99553.09;;;3.50;56.50
22743;BME280;11538;48.884;8.696;2023-02-28T11:43:39;99551.59;;;4.48;53.91
22743;BME280;11538;48.884;8.696;2023-02-28T11:46:28;99545.63;;;5.43;51.95
22743;BME280;11538;48.884;8.696;2023-02-28T11:49:25;99548.53;;;5.59;50.36
22743;BME280;11538;48.884;8.696;2023-02-28T11:52:40;99547.16;;;5.95;49.72
22743;BME280;11538;48.884;8.696;2023-02-28T11:55:25;99556.66;;;5.24;50.55
22743;BME280;11538;48.884;8.696;2023-02-28T11:58:38;99549.88;;;4.71;51.86
22743;BME280;11538;48.884;8.696;2023-02-28T12:11:58;99539.97;;;5.62;49.76
22743;BME280;11538;48.884;8.696;2023-02-28T12:20:53;99527.53;;;6.72;46.13
22743;BME280;11538;48.884;8.696;2023-02-28T12:26:36;99527.94;;;6.09;48.03
22743;BME280;11538;48.884;8.696;2023-02-28T12:29:17;99535.00;;;6.15;48.21
22743;BME280;11538;48.884;8.696;2023-02-28T12:32:08;99526.66;;;6.39;47.64
22743;BME280;11538;48.884;8.696;2023-02-28T12:34:45;99537.22;;;6.18;47.85
22743;BME280;11538;48.884;8.696;2023-02-28T12:37:21;99531.41;;;6.04;47.77
22743;BME280;11538;48.884;8.696;2023-02-28T12:40:01;99518.41;;;5.79;47.73
22743;BME280;11538;48.884;8.696;2023-02-28T12:42:37;99520.25;;;5.56;48.59
22743;BME280;11538;48.884;8.696;2023-02-28T12:45:12;99516.81;;;6.50;47.48
22743;BME280;11538;48.884;8.696;2023-02-28T12:47:44;99514.25;;;7.30;45.41
22743;BME280;11538;48.884;8.696;2023-02-28T12:50:14;99505.63;;;7.34;44.57
22743;BME280;11538;48.884;8.696;2023-02-28T12:53:38;99511.19;;;7.22;45.33
22743;BME280;11538;48.884;8.696;2023-02-28T12:59:50;99497.16;;;7.20;45.01
22743;BME280;11538;48.884;8.696;2023-02-28T13:10:50;99482.03;;;9.03;41.58
22743;BME280;11538;48.884;8.696;2023-02-28T13:13:28;99484.38;;;10.22;39.97
22743;BME280;11538;48.884;8.696;2023-02-28T13:16:08;99489.34;;;9.23;40.71
22743;BME280;11538;48.884;8.696;2023-02-28T13:18:46;99481.47;;;8.39;41.75
22743;BME280;11538;48.884;8.696;2023-02-28T13:21:27;99487.19;;;7.73;43.71
22743;BME280;11538;48.884;8.696;2023-02-28T13:29:28;99487.56;;;9.79;39.93
22743;BME280;11538;48.884;8.696;2023-02-28T13:32:28;99481.06;;;10.75;38.55
22743;BME280;11538;48.884;8.696;2023-02-28T13:35:34;99487.44;;;11.24;37.84
22743;BME280;11538;48.884;8.696;2023-02-28T13:38:16;99476.25;;;11.31;36.94
22743;BME280;11538;48.884;8.696;2023-02-28T13:40:43;99486.94;;;10.48;38.58
22743;BME280;11538;48.884;8.696;2023-02-28T13:43:10;99486.66;;;9.99;39.25
22743;BME280;11538;48.884;8.696;2023-02-28T13:45:37;99492.03;;;9.28;40.49
22743;BME280;11538;48.884;8.696;2023-02-28T13:48:19;99486.94;;;8.85;41.36
22743;BME280;11538;48.884;8.696;2023-02-28T13:50:46;99491.19;;;8.40;42.02
22743;BME280;11538;48.884;8.696;2023-02-28T13:56:09;99489.63;;;7.75;43.50
22743;BME280;11538;48.884;8.696;2023-02-28T13:58:58;99485.69;;;7.98;43.22
22743;BME280;11538;48.884;8.696;2023-02-28T14:02:01;99487.41;;;9.49;40.72
22743;BME280;11538;48.884;8.696;2023-02-28T14:04:57;99485.41;;;10.31;39.31
22743;BME280;11538;48.884;8.696;2023-02-28T14:07:43;99490.78;;;10.36;38.94
22743;BME280;11538;48.884;8.696;2023-02-28T14:10:29;99480.78;;;10.42;38.77
22743;BME280;11538;48.884;8.696;2023-02-28T14:18:34;99483.59;;;9.50;39.93
22743;BME280;11538;48.884;8.696;2023-02-28T14:29:58;99472.59;;;8.95;40.83
22743;BME280;11538;48.884;8.696;2023-02-28T14:36:06;99476.50;;;7.99;43.25
22743;BME280;11538;48.884;8.696;2023-02-28T14:38:59;99467.41;;;7.52;44.16
22743;BME280;11538;48.884;8.696;2023-02-28T14:41:40;99480.50;;;7.33;44.80
22743;BME280;11538;48.884;8.696;2023-02-28T14:44:26;99477.84;;;7.38;45.08
22743;BME280;11538;48.884;8.696;2023-02-28T14:46:57;99477.66;;;7.50;45.23
22743;BME280;11538;48.884;8.696;2023-02-28T14:49:36;99476.25;;;7.47;44.99
22743;BME280;11538;48.884;8.696;2023-02-28T14:52:20;99476.50;;;7.41;44.93
22743;BME280;11538;48.884;8.696;2023-02-28T14:54:54;99483.38;;;7.21;45.34
22743;BME280;11538;48.884;8.696;2023-02-28T14:57:25;99493.28;;;7.05;45.68
22743;BME280;11538;48.884;8.696;2023-02-28T15:00:16;99483.41;;;6.83;46.52
22743;BME280;11538;48.884;8.696;2023-02-28T15:02:47;99477.47;;;6.81;46.68
22743;BME280;11538;48.884;8.696;2023-02-28T15:05:18;99480.91;;;6.77;46.68
22743;BME280;11538;48.884;8.696;2023-02-28T15:07:49;99483.84;;;6.70;47.15
22743;BME280;11538;48.884;8.696;2023-02-28T15:10:28;99478.97;;;6.67;47.43
22743;BME280;11538;48.884;8.696;2023-02-28T15:13:04;99478.88;;;6.62;47.56
22743;BME280;11538;48.884;8.696;2023-02-28T15:15:58;99481.34;;;6.63;47.25
22743;BME280;11538;48.884;8.696;2023-02-28T15:18:58;99484.56;;;6.60;47.30
22743;BME280;11538;48.884;8.696;2023-02-28T15:21:34;99485.81;;;6.52;47.47
22743;BME280;11538;48.884;8.696;2023-02-28T15:24:19;99473.31;;;6.41;48.15